sensor_id;sensor_type;location;lat;lon;timestamp;temperature;humidity
2611;DHT22;5612;51.134;17.058;2023-01-31T00:00:49;3.70;99.90
2611;DHT22;5612;51.134;17.058;2023-01-31T00:03:18;3.80;99.90
2611;DHT22;5612;51.134;17.058;2023-01-31T00:05:47;3.80;99.90
2611;DHT22;5612;51.134;17.058;2023-01-31T00:08:16;3.80;99.90
2611;DHT22;5612;51.134;17.058;2023-01-31T00:10:44;3.80;99.90
2611;DHT22;5612;51.134;17.058;2023-01-31T00:13:13;3.80;99.90
2611;DHT22;5612;51.134;17.058;2023-01-31T00:15:43;3.80;99.90
2611;DHT22;5612;51.134;17.058;2023-01-31T00:18:12;3.80;99.90
2611;DHT22;5612;51.134;17.058;2023-01-31T00:20:41;3.80;99.90
2611;DHT22;5612;51.134;17.058;2023-01-31T00:23:10;3.80;99.90
2611;DHT22;5612;51.134;17.058;2023-01-31T00:25:38;3.80;99.90
2611;DHT22;5612;51.134;17.058;2023-01-31T00:28:07;3.80;99.90
2611;DHT22;5612;51.134;17.058;2023-01-31T00:30:36;3.70;99.90
2611;DHT22;5612;51.134;17.058;2023-01-31T00:33:06;3.70;96.10
2611;DHT22;5612;51.134;17.058;2023-01-31T00:35:38;3.70;95.00
2611;DHT22;5612;51.134;17.058;2023-01-31T00:38:07;3.70;96.50
2611;DHT22;5612;51.134;17.058;2023-01-31T00:40:36;3.70;92.80
2611;DHT22;5612;51.134;17.058;2023-01-31T00:43:04;3.80;90.10
2611;DHT22;5612;51.134;17.058;2023-01-31T00:45:33;3.70;90.90
2611;DHT22;5612;51.134;17.058;2023-01-31T00:48:03;3.60;99.90
2611;DHT22;5612;51.134;17.058;2023-01-31T00:50:33;3.60;99.90
2611;DHT22;5612;51.134;17.058;2023-01-31T00:53:02;3.60;99.30
2611;DHT22;5612;51.134;17.058;2023-01-31T00:55:31;3.70;94.40
2611;DHT22;5612;51.134;17.058;2023-01-31T00:58:01;3.70;99.90
2611;DHT22;5612;51.134;17.058;2023-01-31T01:00:30;3.80;90.40
2611;DHT22;5612;51.134;17.058;2023-01-31T01:02:59;3.80;73.10
2611;DHT22;5612;51.134;17.058;2023-01-31T01:05:28;3.70;86.30
2611;DHT22;5612;51.134;17.058;2023-01-31T01:07:58;3.70;54.20
2611;DHT22;5612;51.134;17.058;2023-01-31T01:10:27;3.80;33.10
2611;DHT22;5612;51.134;17.058;2023-01-31T01:12:56;3.80;7.40
2611;DHT22;5612;51.134;17.058;2023-01-31T01:15:25;3.80;25.00
2611;DHT22;5612;51.134;17.058;2023-01-31T01:17:54;3.80;19.80
2611;DHT22;5612;51.134;17.058;2023-01-31T01:20:23;3.80;2.70
2611;DHT22;5612;51.134;17.058;2023-01-31T01:22:52;3.70;1.00
2611;DHT22;5612;51.134;17.058;2023-01-31T01:25:22;3.80;1.00
2611;DHT22;5612;51.134;17.058;2023-01-31T01:27:51;3.80;1.00
2611;DHT22;5612;51.134;17.058;2023-01-31T01:30:20;3.80;1.00
2611;DHT22;5612;51.134;17.058;2023-01-31T01:32:49;3.80;1.00
2611;DHT22;5612;51.134;17.058;2023-01-31T01:35:17;3.80;1.00
2611;DHT22;5612;51.134;17.058;2023-01-31T01:37:46;3.80;1.00
2611;DHT22;5612;51.134;17.058;2023-01-31T01:40:16;3.80;1.00
2611;DHT22;5612;51.134;17.058;2023-01-31T01:42:46;3.70;1.00
2611;DHT22;5612;51.134;17.058;2023-01-31T01:45:15;3.70;1.00
2611;DHT22;5612;51.134;17.058;2023-01-31T01:47:48;3.80;1.00
2611;DHT22;5612;51.134;17.058;2023-01-31T01:50:21;3.80;1.00
2611;DHT22;5612;51.134;17.058;2023-01-31T01:52:53;3.80;1.00
2611;DHT22;5612;51.134;17.058;2023-01-31T01:55:33;3.80;1.00
2611;DHT22;5612;51.134;17.058;2023-01-31T01:58:08;3.80;1.00
2611;DHT22;5612;51.134;17.058;2023-01-31T02:00:38;3.80;1.00
2611;DHT22;5612;51.134;17.058;2023-01-31T02:03:07;3.80;1.00
2611;DHT22;5612;51.134;17.058;2023-01-31T02:05:42;3.80;1.00
2611;DHT22;5612;51.134;17.058;2023-01-31T02:08:12;3.80;1.00
2611;DHT22;5612;51.134;17.058;2023-01-31T02:10:47;3.80;1.00
2611;DHT22;5612;51.134;17.058;2023-01-31T02:13:18;3.70;1.00
2611;DHT22;5612;51.134;17.058;2023-01-31T02:15:48;3.70;1.00
2611;DHT22;5612;51.134;17.058;2023-01-31T02:18:19;3.70;1.00
2611;DHT22;5612;51.134;17.058;2023-01-31T02:21:10;3.60;1.00
2611;DHT22;5612;51.134;17.058;2023-01-31T02:24:19;3.60;1.00
2611;DHT22;5612;51.134;17.058;2023-01-31T02:27:17;3.70;1.00
2611;DHT22;5612;51.134;17.058;2023-01-31T02:33:03;3.50;21.00
2611;DHT22;5612;51.134;17.058;2023-01-31T02:35:43;3.30;62.20
2611;DHT22;5612;51.134;17.058;2023-01-31T02:38:22;3.20;92.90
2611;DHT22;5612;51.134;17.058;2023-01-31T02:41:03;3.20;99.90
2611;DHT22;5612;51.134;17.058;2023-01-31T02:43:39;3.20;99.90
2611;DHT22;5612;51.134;17.058;2023-01-31T02:46:29;3.10;99.90
2611;DHT22;5612;51.134;17.058;2023-01-31T02:49:05;3.10;99.90
2611;DHT22;5612;51.134;17.058;2023-01-31T02:51:37;3.10;99.90
2611;DHT22;5612;51.134;17.058;2023-01-31T02:54:12;3.10;99.90
2611;DHT22;5612;51.134;17.058;2023-01-31T02:56:43;3.00;99.90
2611;DHT22;5612;51.134;17.058;2023-01-31T02:59:16;3.00;99.90
2611;DHT22;5612;51.134;17.058;2023-01-31T03:01:54;3.00;69.80
2611;DHT22;5612;51.134;17.058;2023-01-31T03:04:29;3.10;15.50
2611;DHT22;5612;51.134;17.058;2023-01-31T03:07:01;3.20;12.40
2611;DHT22;5612;51.134;17.058;2023-01-31T03:09:36;3.20;1.00
2611;DHT22;5612;51.134;17.058;2023-01-31T03:12:39;3.30;1.00
2611;DHT22;5612;51.134;17.058;2023-01-31T03:18:29;3.30;1.00
2611;DHT22;5612;51.134;17.058;2023-01-31T03:21:07;3.40;1.00
2611;DHT22;5612;51.134;17.058;2023-01-31T03:23:39;3.40;1.00
2611;DHT22;5612;51.134;17.058;2023-01-31T03:26:09;3.30;1.00
2611;DHT22;5612;51.134;17.058;2023-01-31T03:28:39;3.40;1.00
2611;DHT22;5612;51.134;17.058;2023-01-31T03:31:14;3.40;1.00
2611;DHT22;5612;51.134;17.058;2023-01-31T03:33:48;3.40;99.90
2611;DHT22;5612;51.134;17.058;2023-01-31T03:36:26;3.40;99.90
2611;DHT22;5612;51.134;17.058;2023-01-31T03:39:04;3.40;99.90
2611;DHT22;5612;51.134;17.058;2023-01-31T03:41:49;3.50;99.90
2611;DHT22;5612;51.134;17.058;2023-01-31T03:44:28;3.50;99.90
2611;DHT22;5612;51.134;17.058;2023-01-31T03:47:02;3.50;99.90
2611;DHT22;5612;51.134;17.058;2023-01-31T03:49:33;3.40;99.90
2611;DHT22;5612;51.134;17.058;2023-01-31T03:52:06;3.40;75.40
2611;DHT22;5612;51.134;17.058;2023-01-31T03:54:39;3.40;99.90
2611;DHT22;5612;51.134;17.058;2023-01-31T03:57:13;3.40;99.90
2611;DHT22;5612;51.134;17.058;2023-01-31T03:59:45;3.40;1.00
2611;DHT22;5612;51.134;17.058;2023-01-31T04:02:16;3.30;1.00
2611;DHT22;5612;51.134;17.058;2023-01-31T04:04:48;3.40;5.50
2611;DHT22;5612;51.134;17.058;2023-01-31T04:07:19;3.40;1.00
2611;DHT22;5612;51.134;17.058;2023-01-31T04:09:48;3.40;74.10
2611;DHT22;5612;51.134;17.058;2023-01-31T04:12:17;3.40;99.90
2611;DHT22;5612;51.134;17.058;2023-01-31T04:14:46;3.40;99.90
2611;DHT22;5612;51.134;17.058;2023-01-31T04:17:15;3.40;70.90
2611;DHT22;5612;51.134;17.058;2023-01-31T04:19:43;3.40;1.00
2611;DHT22;5612;51.134;17.058;2023-01-31T04:22:12;3.40;1.00
2611;DHT22;5612;51.134;17.058;2023-01-31T04:24:43;3.40;99.90
2611;DHT22;5612;51.134;17.058;2023-01-31T04:27:11;3.40;79.20
2611;DHT22;5612;51.134;17.058;2023-01-31T04:29:40;3.40;99.90
2611;DHT22;5612;51.134;17.058;2023-01-31T04:32:09;3.40;99.90
2611;DHT22;5612;51.134;17.058;2023-01-31T04:34:38;3.30;99.90
2611;DHT22;5612;51.134;17.058;2023-01-31T04:37:06;3.30;99.90
2611;DHT22;5612;51.134;17.058;2023-01-31T04:39:36;3.30;99.90
2611;DHT22;5612;51.134;17.058;2023-01-31T04:42:06;3.30;99.90
2611;DHT22;5612;51.134;17.058;2023-01-31T04:44:35;3.40;99.90
2611;DHT22;5612;51.134;17.058;2023-01-31T04:47:04;3.30;99.90
2611;DHT22;5612;51.134;17.058;2023-01-31T04:49:33;3.30;99.90
2611;DHT22;5612;51.134;17.058;2023-01-31T04:52:02;3.40;99.90
2611;DHT22;5612;51.134;17.058;2023-01-31T04:54:30;3.40;99.90
2611;DHT22;5612;51.134;17.058;2023-01-31T04:56:59;3.40;99.90
2611;DHT22;5612;51.134;17.058;2023-01-31T04:59:29;3.40;99.90
2611;DHT22;5612;51.134;17.058;2023-01-31T05:01:58;3.40;99.90
2611;DHT22;5612;51.134;17.058;2023-01-31T05:04:27;3.40;99.90
2611;DHT22;5612;51.134;17.058;2023-01-31T05:06:56;3.40;99.90
2611;DHT22;5612;51.134;17.058;2023-01-31T05:09:25;3.40;99.90
2611;DHT22;5612;51.134;17.058;2023-01-31T05:11:53;3.40;99.90
2611;DHT22;5612;51.134;17.058;2023-01-31T05:14:22;3.30;1.00
2611;DHT22;5612;51.134;17.058;2023-01-31T05:16:52;3.20;1.00
2611;DHT22;5612;51.134;17.058;2023-01-31T05:19:21;3.10;1.00
2611;DHT22;5612;51.134;17.058;2023-01-31T05:21:50;3.10;72.40
2611;DHT22;5612;51.134;17.058;2023-01-31T05:24:27;3.10;99.90
2611;DHT22;5612;51.134;17.058;2023-01-31T05:26:59;3.10;99.90
2611;DHT22;5612;51.134;17.058;2023-01-31T05:29:30;3.10;99.90
2611;DHT22;5612;51.134;17.058;2023-01-31T05:32:02;3.10;99.90
2611;DHT22;5612;51.134;17.058;2023-01-31T05:34:31;3.10;1.00
2611;DHT22;5612;51.134;17.058;2023-01-31T05:37:01;3.10;1.00
2611;DHT22;5612;51.134;17.058;2023-01-31T05:39:30;3.00;99.90
2611;DHT22;5612;51.134;17.058;2023-01-31T05:41:59;3.00;99.90
2611;DHT22;5612;51.134;17.058;2023-01-31T05:44:28;3.00;99.90
2611;DHT22;5612;51.134;17.058;2023-01-31T05:46:58;3.00;1.00
2611;DHT22;5612;51.134;17.058;2023-01-31T05:49:29;3.00;99.90
2611;DHT22;5612;51.134;17.058;2023-01-31T05:52:00;3.00;99.90
2611;DHT22;5612;51.134;17.058;2023-01-31T05:54:29;3.00;99.90
2611;DHT22;5612;51.134;17.058;2023-01-31T05:56:58;3.00;1.00
2611;DHT22;5612;51.134;17.058;2023-01-31T05:59:27;3.00;1.00
2611;DHT22;5612;51.134;17.058;2023-01-31T06:01:58;3.10;1.00
2611;DHT22;5612;51.134;17.058;2023-01-31T06:04:28;3.00;1.00
2611;DHT22;5612;51.134;17.058;2023-01-31T06:06:58;3.10;1.00
2611;DHT22;5612;51.134;17.058;2023-01-31T06:09:27;3.10;1.00
2611;DHT22;5612;51.134;17.058;2023-01-31T06:11:56;3.10;99.90
2611;DHT22;5612;51.134;17.058;2023-01-31T06:14:26;3.10;99.90
2611;DHT22;5612;51.134;17.058;2023-01-31T06:16:54;3.20;99.90
2611;DHT22;5612;51.134;17.058;2023-01-31T06:19:34;3.20;99.90
2611;DHT22;5612;51.134;17.058;2023-01-31T06:22:09;3.20;99.90
2611;DHT22;5612;51.134;17.058;2023-01-31T06:24:38;3.20;99.90
2611;DHT22;5612;51.134;17.058;2023-01-31T06:27:08;3.10;99.90
2611;DHT22;5612;51.134;17.058;2023-01-31T06:29:40;3.20;99.90
2611;DHT22;5612;51.134;17.058;2023-01-31T06:32:19;3.20;99.90
2611;DHT22;5612;51.134;17.058;2023-01-31T06:34:49;3.20;99.90
2611;DHT22;5612;51.134;17.058;2023-01-31T06:37:19;3.20;99.90
2611;DHT22;5612;51.134;17.058;2023-01-31T06:39:47;3.20;99.90
2611;DHT22;5612;51.134;17.058;2023-01-31T06:42:16;3.30;99.90
2611;DHT22;5612;51.134;17.058;2023-01-31T06:44:47;3.30;99.90
2611;DHT22;5612;51.134;17.058;2023-01-31T06:47:16;3.30;99.90
2611;DHT22;5612;51.134;17.058;2023-01-31T06:49:46;3.30;99.90
2611;DHT22;5612;51.134;17.058;2023-01-31T06:52:16;3.30;99.90
2611;DHT22;5612;51.134;17.058;2023-01-31T06:54:45;3.20;99.90
2611;DHT22;5612;51.134;17.058;2023-01-31T06:57:13;3.20;1.00
2611;DHT22;5612;51.134;17.058;2023-01-31T06:59:42;3.10;1.00
2611;DHT22;5612;51.134;17.058;2023-01-31T07:02:23;3.00;99.90
2611;DHT22;5612;51.134;17.058;2023-01-31T07:05:42;3.10;99.90
2611;DHT22;5612;51.134;17.058;2023-01-31T07:09:12;3.20;99.90
2611;DHT22;5612;51.134;17.058;2023-01-31T07:11:53;3.30;1.00
2611;DHT22;5612;51.134;17.058;2023-01-31T07:14:22;3.20;1.00
2611;DHT22;5612;51.134;17.058;2023-01-31T07:16:51;3.20;1.00
2611;DHT22;5612;51.134;17.058;2023-01-31T07:19:20;3.30;1.00
2611;DHT22;5612;51.134;17.058;2023-01-31T07:21:49;3.40;1.00
2611;DHT22;5612;51.134;17.058;2023-01-31T07:24:19;3.40;1.00
2611;DHT22;5612;51.134;17.058;2023-01-31T07:26:51;3.40;1.00
2611;DHT22;5612;51.134;17.058;2023-01-31T07:29:20;3.50;10.10
2611;DHT22;5612;51.134;17.058;2023-01-31T07:31:49;3.30;1.00
2611;DHT22;5612;51.134;17.058;2023-01-31T07:34:18;3.40;36.10
2611;DHT22;5612;51.134;17.058;2023-01-31T07:36:58;3.40;36.40
2611;DHT22;5612;51.134;17.058;2023-01-31T07:40:20;3.50;23.20
2611;DHT22;5612;51.134;17.058;2023-01-31T07:43:52;3.40;54.20
2611;DHT22;5612;51.134;17.058;2023-01-31T07:47:01;3.40;56.90
2611;DHT22;5612;51.134;17.058;2023-01-31T07:49:45;3.30;99.90
2611;DHT22;5612;51.134;17.058;2023-01-31T07:52:17;3.60;99.90
2611;DHT22;5612;51.134;17.058;2023-01-31T07:54:46;3.60;1.00
2611;DHT22;5612;51.134;17.058;2023-01-31T07:57:16;3.60;1.00
2611;DHT22;5612;51.134;17.058;2023-01-31T07:59:45;3.60;1.00
2611;DHT22;5612;51.134;17.058;2023-01-31T08:02:15;3.50;1.00
2611;DHT22;5612;51.134;17.058;2023-01-31T08:05:03;3.50;99.90
2611;DHT22;5612;51.134;17.058;2023-01-31T08:07:32;3.50;99.90
2611;DHT22;5612;51.134;17.058;2023-01-31T08:10:01;3.60;1.00
2611;DHT22;5612;51.134;17.058;2023-01-31T08:12:33;3.70;99.90
2611;DHT22;5612;51.134;17.058;2023-01-31T08:15:02;3.70;99.90
2611;DHT22;5612;51.134;17.058;2023-01-31T08:17:31;3.70;99.90
2611;DHT22;5612;51.134;17.058;2023-01-31T08:20:00;3.90;99.90
2611;DHT22;5612;51.134;17.058;2023-01-31T08:22:29;3.90;99.90
2611;DHT22;5612;51.134;17.058;2023-01-31T08:24:58;4.00;99.90
2611;DHT22;5612;51.134;17.058;2023-01-31T08:27:27;4.20;99.90
2611;DHT22;5612;51.134;17.058;2023-01-31T08:29:58;4.20;99.90
2611;DHT22;5612;51.134;17.058;2023-01-31T08:32:26;4.00;99.90
2611;DHT22;5612;51.134;17.058;2023-01-31T08:34:55;3.90;99.90
2611;DHT22;5612;51.134;17.058;2023-01-31T08:37:24;4.00;1.00
2611;DHT22;5612;51.134;17.058;2023-01-31T08:39:53;3.90;1.00
2611;DHT22;5612;51.134;17.058;2023-01-31T08:42:22;4.00;1.00
2611;DHT22;5612;51.134;17.058;2023-01-31T08:44:51;4.10;1.00
2611;DHT22;5612;51.134;17.058;2023-01-31T08:47:21;4.10;1.00
2611;DHT22;5612;51.134;17.058;2023-01-31T08:49:50;4.10;1.00
2611;DHT22;5612;51.134;17.058;2023-01-31T08:52:18;4.10;1.00
2611;DHT22;5612;51.134;17.058;2023-01-31T08:54:47;4.00;1.00
2611;DHT22;5612;51.134;17.058;2023-01-31T08:57:16;4.10;1.00
2611;DHT22;5612;51.134;17.058;2023-01-31T08:59:47;4.20;1.00
2611;DHT22;5612;51.134;17.058;2023-01-31T09:02:17;4.40;1.00
2611;DHT22;5612;51.134;17.058;2023-01-31T09:04:47;4.50;1.00
2611;DHT22;5612;51.134;17.058;2023-01-31T09:07:16;4.50;99.90
2611;DHT22;5612;51.134;17.058;2023-01-31T09:09:48;4.50;99.90
2611;DHT22;5612;51.134;17.058;2023-01-31T09:12:17;4.50;99.90
2611;DHT22;5612;51.134;17.058;2023-01-31T09:14:46;4.30;99.90
2611;DHT22;5612;51.134;17.058;2023-01-31T09:17:15;4.40;99.90
2611;DHT22;5612;51.134;17.058;2023-01-31T09:19:43;4.60;99.90
2611;DHT22;5612;51.134;17.058;2023-01-31T09:22:15;4.80;99.90
2611;DHT22;5612;51.134;17.058;2023-01-31T09:24:44;5.30;99.90
2611;DHT22;5612;51.134;17.058;2023-01-31T09:27:13;5.80;99.90
2611;DHT22;5612;51.134;17.058;2023-01-31T09:29:43;6.20;99.90
2611;DHT22;5612;51.134;17.058;2023-01-31T09:32:12;6.10;99.90
2611;DHT22;5612;51.134;17.058;2023-01-31T09:34:41;5.90;99.90
2611;DHT22;5612;51.134;17.058;2023-01-31T09:37:10;5.50;99.90
2611;DHT22;5612;51.134;17.058;2023-01-31T09:39:40;5.50;99.90
2611;DHT22;5612;51.134;17.058;2023-01-31T09:42:17;6.60;99.90
2611;DHT22;5612;51.134;17.058;2023-01-31T09:44:56;7.10;59.80
2611;DHT22;5612;51.134;17.058;2023-01-31T09:47:28;7.30;30.40
2611;DHT22;5612;51.134;17.058;2023-01-31T09:50:02;7.10;61.50
2611;DHT22;5612;51.134;17.058;2023-01-31T09:52:32;6.50;74.30
2611;DHT22;5612;51.134;17.058;2023-01-31T09:55:03;6.10;99.90
2611;DHT22;5612;51.134;17.058;2023-01-31T09:57:41;5.80;99.90
2611;DHT22;5612;51.134;17.058;2023-01-31T10:00:18;5.50;99.90
2611;DHT22;5612;51.134;17.058;2023-01-31T10:03:09;5.20;99.90
2611;DHT22;5612;51.134;17.058;2023-01-31T10:05:49;5.00;99.90
2611;DHT22;5612;51.134;17.058;2023-01-31T10:08:25;5.00;1.00
2611;DHT22;5612;51.134;17.058;2023-01-31T10:11:08;5.20;1.00
2611;DHT22;5612;51.134;17.058;2023-01-31T10:13:44;5.30;1.00
2611;DHT22;5612;51.134;17.058;2023-01-31T10:16:22;5.30;1.00
2611;DHT22;5612;51.134;17.058;2023-01-31T10:18:57;5.30;1.00
2611;DHT22;5612;51.134;17.058;2023-01-31T10:21:30;5.60;99.90
2611;DHT22;5612;51.134;17.058;2023-01-31T10:24:04;5.70;99.90
2611;DHT22;5612;51.134;17.058;2023-01-31T10:26:40;5.70;99.90
2611;DHT22;5612;51.134;17.058;2023-01-31T10:29:16;5.80;99.90
2611;DHT22;5612;51.134;17.058;2023-01-31T10:32:17;5.70;99.90
2611;DHT22;5612;51.134;17.058;2023-01-31T10:35:55;5.80;99.90
2611;DHT22;5612;51.134;17.058;2023-01-31T10:39:59;5.50;99.90
2611;DHT22;5612;51.134;17.058;2023-01-31T10:52:13;5.40;1.00
2611;DHT22;5612;51.134;17.058;2023-01-31T10:54:52;5.30;99.90
2611;DHT22;5612;51.134;17.058;2023-01-31T10:57:25;5.40;7.90
2611;DHT22;5612;51.134;17.058;2023-01-31T10:59:55;5.40;99.90
2611;DHT22;5612;51.134;17.058;2023-01-31T11:02:26;5.40;1.00
2611;DHT22;5612;51.134;17.058;2023-01-31T11:04:58;5.30;8.60
2611;DHT22;5612;51.134;17.058;2023-01-31T11:07:30;5.50;1.00
2611;DHT22;5612;51.134;17.058;2023-01-31T11:10:20;6.10;1.00
2611;DHT22;5612;51.134;17.058;2023-01-31T11:12:54;6.30;1.00
2611;DHT22;5612;51.134;17.058;2023-01-31T11:15:25;6.50;99.90
2611;DHT22;5612;51.134;17.058;2023-01-31T11:17:58;6.40;99.90
2611;DHT22;5612;51.134;17.058;2023-01-31T11:20:29;6.20;1.00
2611;DHT22;5612;51.134;17.058;2023-01-31T11:23:03;5.90;99.90
2611;DHT22;5612;51.134;17.058;2023-01-31T11:25:34;5.70;1.00
2611;DHT22;5612;51.134;17.058;2023-01-31T11:28:16;5.70;1.00
2611;DHT22;5612;51.134;17.058;2023-01-31T11:30:50;5.50;1.00
2611;DHT22;5612;51.134;17.058;2023-01-31T11:33:40;5.40;1.00
2611;DHT22;5612;51.134;17.058;2023-01-31T11:36:14;5.30;99.90
2611;DHT22;5612;51.134;17.058;2023-01-31T11:38:44;5.40;53.40
2611;DHT22;5612;51.134;17.058;2023-01-31T11:41:32;5.40;15.10
2611;DHT22;5612;51.134;17.058;2023-01-31T11:44:12;5.40;24.00
2611;DHT22;5612;51.134;17.058;2023-01-31T11:46:48;5.40;1.00
2611;DHT22;5612;51.134;17.058;2023-01-31T11:49:36;5.40;1.50
2611;DHT22;5612;51.134;17.058;2023-01-31T11:52:13;5.20;72.00
2611;DHT22;5612;51.134;17.058;2023-01-31T11:54:47;5.10;1.00
2611;DHT22;5612;51.134;17.058;2023-01-31T11:57:21;5.10;99.90
2611;DHT22;5612;51.134;17.058;2023-01-31T11:59:53;5.00;99.90
2611;DHT22;5612;51.134;17.058;2023-01-31T12:02:29;4.90;1.00
2611;DHT22;5612;51.134;17.058;2023-01-31T12:04:59;4.90;99.90
2611;DHT22;5612;51.134;17.058;2023-01-31T12:07:40;4.80;13.10
2611;DHT22;5612;51.134;17.058;2023-01-31T12:10:29;4.70;99.90
2611;DHT22;5612;51.134;17.058;2023-01-31T12:13:00;4.60;99.50
2611;DHT22;5612;51.134;17.058;2023-01-31T12:15:47;4.50;1.00
2611;DHT22;5612;51.134;17.058;2023-01-31T12:18:27;4.30;1.00
2611;DHT22;5612;51.134;17.058;2023-01-31T12:21:02;4.30;55.30
2611;DHT22;5612;51.134;17.058;2023-01-31T12:23:46;4.20;77.50
2611;DHT22;5612;51.134;17.058;2023-01-31T12:26:27;4.30;99.90
2611;DHT22;5612;51.134;17.058;2023-01-31T12:29:10;4.40;80.40
2611;DHT22;5612;51.134;17.058;2023-01-31T12:31:57;4.50;73.10
2611;DHT22;5612;51.134;17.058;2023-01-31T12:34:56;4.70;15.80
2611;DHT22;5612;51.134;17.058;2023-01-31T12:37:43;4.70;1.00
2611;DHT22;5612;51.134;17.058;2023-01-31T12:40:27;4.70;1.00
2611;DHT22;5612;51.134;17.058;2023-01-31T12:43:01;4.70;1.00
2611;DHT22;5612;51.134;17.058;2023-01-31T12:45:41;4.70;1.00
2611;DHT22;5612;51.134;17.058;2023-01-31T12:48:21;4.70;1.00
2611;DHT22;5612;51.134;17.058;2023-01-31T12:50:59;4.80;1.00
2611;DHT22;5612;51.134;17.058;2023-01-31T12:53:46;4.80;1.00
2611;DHT22;5612;51.134;17.058;2023-01-31T12:56:35;4.70;1.00
2611;DHT22;5612;51.134;17.058;2023-01-31T12:59:23;4.70;1.00
2611;DHT22;5612;51.134;17.058;2023-01-31T13:01:59;4.50;1.00
2611;DHT22;5612;51.134;17.058;2023-01-31T13:04:35;4.50;1.00
2611;DHT22;5612;51.134;17.058;2023-01-31T13:07:12;4.50;1.00
2611;DHT22;5612;51.134;17.058;2023-01-31T13:09:44;4.40;1.00
2611;DHT22;5612;51.134;17.058;2023-01-31T13:12:15;4.40;1.00
2611;DHT22;5612;51.134;17.058;2023-01-31T13:14:51;4.40;1.00
2611;DHT22;5612;51.134;17.058;2023-01-31T13:17:26;4.20;47.30
2611;DHT22;5612;51.134;17.058;2023-01-31T13:19:57;4.10;77.50
2611;DHT22;5612;51.134;17.058;2023-01-31T13:22:33;4.00;94.70
2611;DHT22;5612;51.134;17.058;2023-01-31T13:25:15;4.00;90.70
2611;DHT22;5612;51.134;17.058;2023-01-31T13:27:56;4.00;99.90
2611;DHT22;5612;51.134;17.058;2023-01-31T13:30:33;4.00;99.90
2611;DHT22;5612;51.134;17.058;2023-01-31T13:33:16;4.00;72.80
2611;DHT22;5612;51.134;17.058;2023-01-31T13:35:49;4.00;67.90
2611;DHT22;5612;51.134;17.058;2023-01-31T13:38:22;4.00;27.00
2611;DHT22;5612;51.134;17.058;2023-01-31T13:40:56;4.10;21.90
2611;DHT22;5612;51.134;17.058;2023-01-31T13:43:25;4.20;11.80
2611;DHT22;5612;51.134;17.058;2023-01-31T13:45:58;4.20;1.00
2611;DHT22;5612;51.134;17.058;2023-01-31T13:48:33;4.20;1.00
2611;DHT22;5612;51.134;17.058;2023-01-31T13:51:08;4.20;1.00
2611;DHT22;5612;51.134;17.058;2023-01-31T13:53:44;4.30;1.00
2611;DHT22;5612;51.134;17.058;2023-01-31T13:56:29;4.30;1.00
2611;DHT22;5612;51.134;17.058;2023-01-31T13:59:00;4.30;1.00
2611;DHT22;5612;51.134;17.058;2023-01-31T14:01:34;4.30;1.00
2611;DHT22;5612;51.134;17.058;2023-01-31T14:04:26;4.40;1.00
2611;DHT22;5612;51.134;17.058;2023-01-31T14:07:12;4.40;1.00
2611;DHT22;5612;51.134;17.058;2023-01-31T14:09:43;4.30;1.00
2611;DHT22;5612;51.134;17.058;2023-01-31T14:12:32;4.30;1.00
2611;DHT22;5612;51.134;17.058;2023-01-31T14:17:59;4.40;1.00
2611;DHT22;5612;51.134;17.058;2023-01-31T14:20:29;4.30;1.00
2611;DHT22;5612;51.134;17.058;2023-01-31T14:23:30;4.30;1.00
2611;DHT22;5612;51.134;17.058;2023-01-31T14:26:01;4.10;1.00
2611;DHT22;5612;51.134;17.058;2023-01-31T14:28:42;4.00;1.00
2611;DHT22;5612;51.134;17.058;2023-01-31T14:31:12;4.00;52.30
2611;DHT22;5612;51.134;17.058;2023-01-31T14:33:45;3.90;59.20
2611;DHT22;5612;51.134;17.058;2023-01-31T14:36:38;3.90;40.10
2611;DHT22;5612;51.134;17.058;2023-01-31T14:42:47;3.80;73.30
2611;DHT22;5612;51.134;17.058;2023-01-31T14:45:32;3.80;99.90
2611;DHT22;5612;51.134;17.058;2023-01-31T14:48:18;3.70;99.90
2611;DHT22;5612;51.134;17.058;2023-01-31T14:51:07;3.80;99.90
2611;DHT22;5612;51.134;17.058;2023-01-31T14:54:00;3.80;92.10
2611;DHT22;5612;51.134;17.058;2023-01-31T14:56:51;3.70;94.40
2611;DHT22;5612;51.134;17.058;2023-01-31T14:59:28;3.70;92.50
2611;DHT22;5612;51.134;17.058;2023-01-31T15:04:54;3.70;87.70
2611;DHT22;5612;51.134;17.058;2023-01-31T15:07:26;3.80;90.60
2611;DHT22;5612;51.134;17.058;2023-01-31T15:09:56;3.80;94.20
2611;DHT22;5612;51.134;17.058;2023-01-31T15:12:50;3.80;92.10
2611;DHT22;5612;51.134;17.058;2023-01-31T15:15:25;3.70;93.20
2611;DHT22;5612;51.134;17.058;2023-01-31T15:17:59;3.80;99.90
2611;DHT22;5612;51.134;17.058;2023-01-31T15:20:35;3.70;99.90
2611;DHT22;5612;51.134;17.058;2023-01-31T15:23:09;3.70;99.90
2611;DHT22;5612;51.134;17.058;2023-01-31T15:25:44;3.60;98.50
2611;DHT22;5612;51.134;17.058;2023-01-31T15:28:15;3.60;99.90
2611;DHT22;5612;51.134;17.058;2023-01-31T15:30:45;3.60;99.90
2611;DHT22;5612;51.134;17.058;2023-01-31T15:33:17;3.70;99.90
2611;DHT22;5612;51.134;17.058;2023-01-31T15:35:52;3.80;99.90
2611;DHT22;5612;51.134;17.058;2023-01-31T15:38:29;3.80;99.90
2611;DHT22;5612;51.134;17.058;2023-01-31T15:41:16;3.80;99.90
2611;DHT22;5612;51.134;17.058;2023-01-31T15:43:47;3.70;91.50
2611;DHT22;5612;51.134;17.058;2023-01-31T15:46:23;3.70;99.90
2611;DHT22;5612;51.134;17.058;2023-01-31T15:48:53;3.60;99.90
2611;DHT22;5612;51.134;17.058;2023-01-31T15:51:22;3.70;99.90
2611;DHT22;5612;51.134;17.058;2023-01-31T15:54:02;3.70;99.90
2611;DHT22;5612;51.134;17.058;2023-01-31T15:56:34;3.70;99.90
2611;DHT22;5612;51.134;17.058;2023-01-31T15:59:11;3.70;99.90
2611;DHT22;5612;51.134;17.058;2023-01-31T16:01:46;3.70;99.90
2611;DHT22;5612;51.134;17.058;2023-01-31T16:04:16;3.70;99.90
2611;DHT22;5612;51.134;17.058;2023-01-31T16:06:45;3.60;96.60
2611;DHT22;5612;51.134;17.058;2023-01-31T16:09:25;3.70;99.90
2611;DHT22;5612;51.134;17.058;2023-01-31T16:11:55;3.70;99.90
2611;DHT22;5612;51.134;17.058;2023-01-31T16:14:25;3.70;99.90
2611;DHT22;5612;51.134;17.058;2023-01-31T16:16:57;3.70;99.90
2611;DHT22;5612;51.134;17.058;2023-01-31T16:19:29;3.70;99.90
2611;DHT22;5612;51.134;17.058;2023-01-31T16:21:59;3.70;99.90
2611;DHT22;5612;51.134;17.058;2023-01-31T16:24:32;3.80;99.90
2611;DHT22;5612;51.134;17.058;2023-01-31T16:27:05;3.80;99.90
2611;DHT22;5612;51.134;17.058;2023-01-31T16:29:38;3.70;99.90
2611;DHT22;5612;51.134;17.058;2023-01-31T16:32:15;3.60;99.90
2611;DHT22;5612;51.134;17.058;2023-01-31T16:34:51;3.60;99.90
2611;DHT22;5612;51.134;17.058;2023-01-31T16:37:32;3.60;99.90
2611;DHT22;5612;51.134;17.058;2023-01-31T16:40:16;3.60;99.90
2611;DHT22;5612;51.134;17.058;2023-01-31T16:42:46;3.50;99.90
2611;DHT22;5612;51.134;17.058;2023-01-31T16:45:30;3.50;99.90
2611;DHT22;5612;51.134;17.058;2023-01-31T16:48:18;3.50;99.90
2611;DHT22;5612;51.134;17.058;2023-01-31T16:50:48;3.40;99.90
2611;DHT22;5612;51.134;17.058;2023-01-31T16:53:24;3.40;99.90
2611;DHT22;5612;51.134;17.058;2023-01-31T16:56:20;3.40;99.90
2611;DHT22;5612;51.134;17.058;2023-01-31T16:58:55;3.40;99.90
2611;DHT22;5612;51.134;17.058;2023-01-31T17:01:27;3.40;99.90
2611;DHT22;5612;51.134;17.058;2023-01-31T17:04:16;3.30;99.90
2611;DHT22;5612;51.134;17.058;2023-01-31T17:06:50;3.40;99.90
2611;DHT22;5612;51.134;17.058;2023-01-31T17:09:28;3.40;99.90
2611;DHT22;5612;51.134;17.058;2023-01-31T17:12:00;3.40;99.90
2611;DHT22;5612;51.134;17.058;2023-01-31T17:14:32;3.40;99.90
2611;DHT22;5612;51.134;17.058;2023-01-31T17:17:02;3.40;99.90
2611;DHT22;5612;51.134;17.058;2023-01-31T17:19:43;3.50;99.90
2611;DHT22;5612;51.134;17.058;2023-01-31T17:22:13;3.40;99.90